sensor_id;sensor_type;location;lat;lon;timestamp;temperature;humidity
76607;DHT22;65498;50.916;4.698;2023-03-14T00:01:54;22.10;44.40
76607;DHT22;65498;50.916;4.698;2023-03-14T00:04:21;22.00;44.70
76607;DHT22;65498;50.916;4.698;2023-03-14T00:06:49;22.10;44.40
76607;DHT22;65498;50.916;4.698;2023-03-14T00:09:17;22.30;44.20
76607;DHT22;65498;50.916;4.698;2023-03-14T00:11:45;22.40;44.20
76607;DHT22;65498;50.916;4.698;2023-03-14T00:14:12;22.30;44.60
76607;DHT22;65498;50.916;4.698;2023-03-14T00:16:41;22.20;44.90
76607;DHT22;65498;50.916;4.698;2023-03-14T00:19:09;22.10;45.10
76607;DHT22;65498;50.916;4.698;2023-03-14T00:21:37;22.10;45.20
76607;DHT22;65498;50.916;4.698;2023-03-14T00:24:04;22.10;45.00
76607;DHT22;65498;50.916;4.698;2023-03-14T00:26:32;22.10;44.70
76607;DHT22;65498;50.916;4.698;2023-03-14T00:28:59;22.10;44.60
76607;DHT22;65498;50.916;4.698;2023-03-14T00:31:27;22.10;44.60
76607;DHT22;65498;50.916;4.698;2023-03-14T00:33:55;22.00;44.80
76607;DHT22;65498;50.916;4.698;2023-03-14T00:36:22;22.00;44.80
76607;DHT22;65498;50.916;4.698;2023-03-14T00:38:51;21.90;44.70
76607;DHT22;65498;50.916;4.698;2023-03-14T00:41:23;22.00;44.70
76607;DHT22;65498;50.916;4.698;2023-03-14T00:43:51;22.00;44.80
76607;DHT22;65498;50.916;4.698;2023-03-14T00:46:19;22.00;44.40
76607;DHT22;65498;50.916;4.698;2023-03-14T00:48:47;21.90;44.50
76607;DHT22;65498;50.916;4.698;2023-03-14T00:51:15;22.00;44.50
76607;DHT22;65498;50.916;4.698;2023-03-14T00:53:42;22.00;44.70
76607;DHT22;65498;50.916;4.698;2023-03-14T00:56:11;21.90;44.50
76607;DHT22;65498;50.916;4.698;2023-03-14T00:58:40;21.90;44.50
76607;DHT22;65498;50.916;4.698;2023-03-14T01:01:10;21.90;44.60
76607;DHT22;65498;50.916;4.698;2023-03-14T01:03:38;21.90;44.60
76607;DHT22;65498;50.916;4.698;2023-03-14T01:06:21;22.00;44.70
76607;DHT22;65498;50.916;4.698;2023-03-14T01:08:45;22.00;44.60
76607;DHT22;65498;50.916;4.698;2023-03-14T01:11:20;22.00;44.50
76607;DHT22;65498;50.916;4.698;2023-03-14T01:13:47;22.00;44.60
76607;DHT22;65498;50.916;4.698;2023-03-14T01:16:15;21.90;44.60
76607;DHT22;65498;50.916;4.698;2023-03-14T01:18:44;22.00;45.50
76607;DHT22;65498;50.916;4.698;2023-03-14T01:21:27;22.00;44.40
76607;DHT22;65498;50.916;4.698;2023-03-14T01:23:56;22.00;44.50
76607;DHT22;65498;50.916;4.698;2023-03-14T01:26:26;22.10;44.30
76607;DHT22;65498;50.916;4.698;2023-03-14T01:28:55;22.10;44.60
76607;DHT22;65498;50.916;4.698;2023-03-14T01:31:23;22.10;44.30
76607;DHT22;65498;50.916;4.698;2023-03-14T01:33:51;22.20;44.50
76607;DHT22;65498;50.916;4.698;2023-03-14T01:36:20;22.10;44.30
76607;DHT22;65498;50.916;4.698;2023-03-14T01:38:47;22.20;44.50
76607;DHT22;65498;50.916;4.698;2023-03-14T01:41:21;22.10;44.20
76607;DHT22;65498;50.916;4.698;2023-03-14T01:43:50;22.20;44.40
76607;DHT22;65498;50.916;4.698;2023-03-14T01:46:28;22.20;44.20
76607;DHT22;65498;50.916;4.698;2023-03-14T01:49:20;22.20;44.10
76607;DHT22;65498;50.916;4.698;2023-03-14T01:54:32;22.20;44.20
76607;DHT22;65498;50.916;4.698;2023-03-14T01:59:40;22.20;44.30
76607;DHT22;65498;50.916;4.698;2023-03-14T02:02:10;22.20;44.50
76607;DHT22;65498;50.916;4.698;2023-03-14T02:04:38;22.20;44.00
76607;DHT22;65498;50.916;4.698;2023-03-14T02:07:18;22.20;44.10
76607;DHT22;65498;50.916;4.698;2023-03-14T02:09:46;22.20;43.90
76607;DHT22;65498;50.916;4.698;2023-03-14T02:12:16;22.20;44.00
76607;DHT22;65498;50.916;4.698;2023-03-14T02:14:45;22.20;44.00
76607;DHT22;65498;50.916;4.698;2023-03-14T02:17:16;22.20;44.20
76607;DHT22;65498;50.916;4.698;2023-03-14T02:22:26;22.10;44.30
76607;DHT22;65498;50.916;4.698;2023-03-14T02:25:31;22.20;44.00
76607;DHT22;65498;50.916;4.698;2023-03-14T02:27:58;22.20;44.10
76607;DHT22;65498;50.916;4.698;2023-03-14T02:30:28;22.20;44.10
76607;DHT22;65498;50.916;4.698;2023-03-14T02:33:03;22.10;44.30
76607;DHT22;65498;50.916;4.698;2023-03-14T02:35:35;22.30;44.10
76607;DHT22;65498;50.916;4.698;2023-03-14T02:38:22;22.20;44.20
76607;DHT22;65498;50.916;4.698;2023-03-14T02:40:49;22.10;44.50
76607;DHT22;65498;50.916;4.698;2023-03-14T02:43:17;22.10;44.40
76607;DHT22;65498;50.916;4.698;2023-03-14T02:45:46;22.00;44.70
76607;DHT22;65498;50.916;4.698;2023-03-14T02:48:19;22.00;44.80
76607;DHT22;65498;50.916;4.698;2023-03-14T02:50:49;22.00;45.00
76607;DHT22;65498;50.916;4.698;2023-03-14T02:53:20;22.00;44.70
76607;DHT22;65498;50.916;4.698;2023-03-14T02:55:48;22.10;44.80
76607;DHT22;65498;50.916;4.698;2023-03-14T02:58:17;22.20;44.70
76607;DHT22;65498;50.916;4.698;2023-03-14T03:00:45;22.10;44.80
76607;DHT22;65498;50.916;4.698;2023-03-14T03:03:13;22.20;44.60
76607;DHT22;65498;50.916;4.698;2023-03-14T03:05:41;22.20;44.90
76607;DHT22;65498;50.916;4.698;2023-03-14T03:08:11;22.20;44.70
76607;DHT22;65498;50.916;4.698;2023-03-14T03:10:39;22.10;44.70
76607;DHT22;65498;50.916;4.698;2023-03-14T03:13:06;22.10;45.00
76607;DHT22;65498;50.916;4.698;2023-03-14T03:15:34;22.00;45.10
76607;DHT22;65498;50.916;4.698;2023-03-14T03:18:01;22.00;45.90
76607;DHT22;65498;50.916;4.698;2023-03-14T03:20:29;22.00;45.30
76607;DHT22;65498;50.916;4.698;2023-03-14T03:22:58;22.00;45.40
76607;DHT22;65498;50.916;4.698;2023-03-14T03:25:26;21.90;45.40
76607;DHT22;65498;50.916;4.698;2023-03-14T03:27:53;22.00;45.60
76607;DHT22;65498;50.916;4.698;2023-03-14T03:30:21;22.10;45.30
76607;DHT22;65498;50.916;4.698;2023-03-14T03:32:49;22.00;45.30
76607;DHT22;65498;50.916;4.698;2023-03-14T03:35:16;22.00;45.50
76607;DHT22;65498;50.916;4.698;2023-03-14T03:37:44;21.90;45.70
76607;DHT22;65498;50.916;4.698;2023-03-14T03:40:11;22.00;45.60
76607;DHT22;65498;50.916;4.698;2023-03-14T03:42:39;22.10;45.60
76607;DHT22;65498;50.916;4.698;2023-03-14T03:45:07;22.00;45.30
76607;DHT22;65498;50.916;4.698;2023-03-14T03:47:35;22.00;45.70
76607;DHT22;65498;50.916;4.698;2023-03-14T03:50:02;21.90;45.90
76607;DHT22;65498;50.916;4.698;2023-03-14T03:52:30;22.10;45.80
76607;DHT22;65498;50.916;4.698;2023-03-14T03:54:57;22.00;45.70
76607;DHT22;65498;50.916;4.698;2023-03-14T03:57:25;22.00;45.90
76607;DHT22;65498;50.916;4.698;2023-03-14T03:59:52;22.10;46.00
76607;DHT22;65498;50.916;4.698;2023-03-14T04:02:20;22.10;45.70
76607;DHT22;65498;50.916;4.698;2023-03-14T04:04:47;22.00;45.80
76607;DHT22;65498;50.916;4.698;2023-03-14T04:07:15;22.00;46.00
76607;DHT22;65498;50.916;4.698;2023-03-14T04:09:43;21.90;46.20
76607;DHT22;65498;50.916;4.698;2023-03-14T04:12:10;21.90;46.20
76607;DHT22;65498;50.916;4.698;2023-03-14T04:14:38;22.10;46.10
76607;DHT22;65498;50.916;4.698;2023-03-14T04:17:07;22.00;46.00
76607;DHT22;65498;50.916;4.698;2023-03-14T04:19:35;22.00;46.20
76607;DHT22;65498;50.916;4.698;2023-03-14T04:22:02;22.20;45.80
76607;DHT22;65498;50.916;4.698;2023-03-14T04:24:30;22.00;46.00
76607;DHT22;65498;50.916;4.698;2023-03-14T04:26:57;22.20;46.10
76607;DHT22;65498;50.916;4.698;2023-03-14T04:29:25;22.10;46.70
76607;DHT22;65498;50.916;4.698;2023-03-14T04:31:53;22.10;46.10
76607;DHT22;65498;50.916;4.698;2023-03-14T04:34:20;22.20;46.20
76607;DHT22;65498;50.916;4.698;2023-03-14T04:36:48;22.10;46.10
76607;DHT22;65498;50.916;4.698;2023-03-14T04:39:15;22.20;46.20
76607;DHT22;65498;50.916;4.698;2023-03-14T04:41:44;22.20;46.10
76607;DHT22;65498;50.916;4.698;2023-03-14T04:44:12;22.10;46.30
76607;DHT22;65498;50.916;4.698;2023-03-14T04:46:39;22.00;46.40
76607;DHT22;65498;50.916;4.698;2023-03-14T04:49:07;22.00;46.50
76607;DHT22;65498;50.916;4.698;2023-03-14T04:51:35;22.10;46.40
76607;DHT22;65498;50.916;4.698;2023-03-14T04:54:02;22.20;46.00
76607;DHT22;65498;50.916;4.698;2023-03-14T04:56:30;22.10;46.20
76607;DHT22;65498;50.916;4.698;2023-03-14T04:58:58;22.00;46.50
76607;DHT22;65498;50.916;4.698;2023-03-14T05:01:26;22.10;46.30
76607;DHT22;65498;50.916;4.698;2023-03-14T05:03:53;22.10;46.40
76607;DHT22;65498;50.916;4.698;2023-03-14T05:06:21;22.20;46.10
76607;DHT22;65498;50.916;4.698;2023-03-14T05:08:49;22.10;46.40
76607;DHT22;65498;50.916;4.698;2023-03-14T05:11:16;22.20;46.30
76607;DHT22;65498;50.916;4.698;2023-03-14T05:13:44;22.10;46.30
76607;DHT22;65498;50.916;4.698;2023-03-14T05:16:12;22.10;46.30
76607;DHT22;65498;50.916;4.698;2023-03-14T05:18:39;22.10;46.40
76607;DHT22;65498;50.916;4.698;2023-03-14T05:21:07;22.00;46.80
76607;DHT22;65498;50.916;4.698;2023-03-14T05:23:34;22.10;46.50
76607;DHT22;65498;50.916;4.698;2023-03-14T05:26:02;22.10;46.80
76607;DHT22;65498;50.916;4.698;2023-03-14T05:28:30;22.10;46.30
76607;DHT22;65498;50.916;4.698;2023-03-14T05:30:57;22.00;46.70
76607;DHT22;65498;50.916;4.698;2023-03-14T05:33:25;22.10;46.80
76607;DHT22;65498;50.916;4.698;2023-03-14T05:35:52;22.10;46.60
76607;DHT22;65498;50.916;4.698;2023-03-14T05:38:20;22.00;46.80
76607;DHT22;65498;50.916;4.698;2023-03-14T05:40:48;22.10;46.60
76607;DHT22;65498;50.916;4.698;2023-03-14T05:43:16;22.00;46.70
76607;DHT22;65498;50.916;4.698;2023-03-14T05:45:43;22.20;46.70
76607;DHT22;65498;50.916;4.698;2023-03-14T05:48:11;22.10;46.60
76607;DHT22;65498;50.916;4.698;2023-03-14T05:50:38;22.20;46.80
76607;DHT22;65498;50.916;4.698;2023-03-14T05:53:06;22.10;46.50
76607;DHT22;65498;50.916;4.698;2023-03-14T05:55:33;22.10;46.90
76607;DHT22;65498;50.916;4.698;2023-03-14T05:58:01;22.10;46.70
76607;DHT22;65498;50.916;4.698;2023-03-14T06:00:28;22.10;46.90
76607;DHT22;65498;50.916;4.698;2023-03-14T06:02:56;22.20;46.70
76607;DHT22;65498;50.916;4.698;2023-03-14T06:05:23;22.10;46.70
76607;DHT22;65498;50.916;4.698;2023-03-14T06:07:51;22.20;46.70
76607;DHT22;65498;50.916;4.698;2023-03-14T06:10:19;22.20;46.60
76607;DHT22;65498;50.916;4.698;2023-03-14T06:12:46;22.10;46.90
76607;DHT22;65498;50.916;4.698;2023-03-14T06:15:14;22.30;46.60
76607;DHT22;65498;50.916;4.698;2023-03-14T06:17:41;22.20;46.80
76607;DHT22;65498;50.916;4.698;2023-03-14T06:20:10;22.20;47.00
76607;DHT22;65498;50.916;4.698;2023-03-14T06:22:37;22.10;46.90
76607;DHT22;65498;50.916;4.698;2023-03-14T06:25:06;22.10;47.10
76607;DHT22;65498;50.916;4.698;2023-03-14T06:27:34;22.10;46.80
76607;DHT22;65498;50.916;4.698;2023-03-14T06:30:02;22.10;47.10
76607;DHT22;65498;50.916;4.698;2023-03-14T06:32:29;22.20;46.60
76607;DHT22;65498;50.916;4.698;2023-03-14T06:34:57;22.10;46.80
76607;DHT22;65498;50.916;4.698;2023-03-14T06:37:29;22.20;46.70
76607;DHT22;65498;50.916;4.698;2023-03-14T06:39:57;22.20;46.70
76607;DHT22;65498;50.916;4.698;2023-03-14T06:42:24;22.20;46.90
76607;DHT22;65498;50.916;4.698;2023-03-14T06:44:52;22.20;47.00
76607;DHT22;65498;50.916;4.698;2023-03-14T06:47:19;22.20;47.10
76607;DHT22;65498;50.916;4.698;2023-03-14T06:49:47;22.20;47.00
76607;DHT22;65498;50.916;4.698;2023-03-14T06:52:14;22.10;46.80
76607;DHT22;65498;50.916;4.698;2023-03-14T06:54:42;22.10;47.10
76607;DHT22;65498;50.916;4.698;2023-03-14T06:57:09;22.10;47.10
76607;DHT22;65498;50.916;4.698;2023-03-14T06:59:37;22.00;47.10
76607;DHT22;65498;50.916;4.698;2023-03-14T07:02:04;22.10;47.30
76607;DHT22;65498;50.916;4.698;2023-03-14T07:04:32;22.10;47.10
76607;DHT22;65498;50.916;4.698;2023-03-14T07:07:00;22.10;47.10
76607;DHT22;65498;50.916;4.698;2023-03-14T07:09:27;22.10;47.10
76607;DHT22;65498;50.916;4.698;2023-03-14T07:11:55;22.10;47.10
76607;DHT22;65498;50.916;4.698;2023-03-14T07:14:23;22.10;47.10
76607;DHT22;65498;50.916;4.698;2023-03-14T07:16:50;22.10;47.10
76607;DHT22;65498;50.916;4.698;2023-03-14T07:19:18;22.20;46.80
76607;DHT22;65498;50.916;4.698;2023-03-14T07:21:45;22.30;46.60
76607;DHT22;65498;50.916;4.698;2023-03-14T07:24:13;22.20;46.60
76607;DHT22;65498;50.916;4.698;2023-03-14T07:26:41;22.20;46.90
76607;DHT22;65498;50.916;4.698;2023-03-14T07:29:08;22.20;46.60
76607;DHT22;65498;50.916;4.698;2023-03-14T07:31:36;22.10;46.90
76607;DHT22;65498;50.916;4.698;2023-03-14T07:34:03;22.20;47.40
76607;DHT22;65498;50.916;4.698;2023-03-14T07:36:31;22.10;47.40
76607;DHT22;65498;50.916;4.698;2023-03-14T07:38:58;22.00;48.40
76607;DHT22;65498;50.916;4.698;2023-03-14T07:41:26;22.10;47.30
76607;DHT22;65498;50.916;4.698;2023-03-14T07:43:53;22.10;47.60
76607;DHT22;65498;50.916;4.698;2023-03-14T07:46:21;22.20;47.70
76607;DHT22;65498;50.916;4.698;2023-03-14T07:48:48;22.20;47.60
76607;DHT22;65498;50.916;4.698;2023-03-14T07:51:16;22.10;47.80
76607;DHT22;65498;50.916;4.698;2023-03-14T07:53:43;22.10;47.60
76607;DHT22;65498;50.916;4.698;2023-03-14T07:59:34;22.00;47.70
76607;DHT22;65498;50.916;4.698;2023-03-14T08:02:01;22.00;47.70
76607;DHT22;65498;50.916;4.698;2023-03-14T08:04:30;22.00;47.70
76607;DHT22;65498;50.916;4.698;2023-03-14T08:06:58;22.00;47.50
76607;DHT22;65498;50.916;4.698;2023-03-14T08:09:26;22.00;47.60
76607;DHT22;65498;50.916;4.698;2023-03-14T08:11:53;22.00;47.40
76607;DHT22;65498;50.916;4.698;2023-03-14T08:14:21;22.00;48.10
76607;DHT22;65498;50.916;4.698;2023-03-14T08:16:51;22.00;47.40
76607;DHT22;65498;50.916;4.698;2023-03-14T08:19:18;22.00;47.10
76607;DHT22;65498;50.916;4.698;2023-03-14T08:21:46;22.00;47.20
76607;DHT22;65498;50.916;4.698;2023-03-14T08:24:13;22.00;47.10
76607;DHT22;65498;50.916;4.698;2023-03-14T08:26:41;22.00;47.20
76607;DHT22;65498;50.916;4.698;2023-03-14T08:29:08;22.00;47.20
76607;DHT22;65498;50.916;4.698;2023-03-14T08:31:36;22.00;47.10
76607;DHT22;65498;50.916;4.698;2023-03-14T08:34:03;21.90;47.10
76607;DHT22;65498;50.916;4.698;2023-03-14T08:36:33;21.80;47.30
76607;DHT22;65498;50.916;4.698;2023-03-14T08:39:00;21.90;47.00
76607;DHT22;65498;50.916;4.698;2023-03-14T08:41:30;21.90;47.10
76607;DHT22;65498;50.916;4.698;2023-03-14T08:43:57;21.90;47.00
76607;DHT22;65498;50.916;4.698;2023-03-14T08:46:25;21.90;47.00
76607;DHT22;65498;50.916;4.698;2023-03-14T08:48:52;21.90;46.90
76607;DHT22;65498;50.916;4.698;2023-03-14T08:51:20;21.90;46.80
76607;DHT22;65498;50.916;4.698;2023-03-14T08:53:47;21.90;46.80
76607;DHT22;65498;50.916;4.698;2023-03-14T08:56:15;21.90;46.70
76607;DHT22;65498;50.916;4.698;2023-03-14T08:58:42;22.00;46.40
76607;DHT22;65498;50.916;4.698;2023-03-14T09:01:11;22.00;46.20
76607;DHT22;65498;50.916;4.698;2023-03-14T09:03:38;22.00;46.20
76607;DHT22;65498;50.916;4.698;2023-03-14T09:06:08;22.10;46.00
76607;DHT22;65498;50.916;4.698;2023-03-14T09:08:36;22.00;46.00
76607;DHT22;65498;50.916;4.698;2023-03-14T09:11:08;22.10;45.80
76607;DHT22;65498;50.916;4.698;2023-03-14T09:13:36;22.00;45.70
76607;DHT22;65498;50.916;4.698;2023-03-14T09:16:05;22.00;45.80
76607;DHT22;65498;50.916;4.698;2023-03-14T09:18:32;22.10;45.60
76607;DHT22;65498;50.916;4.698;2023-03-14T09:21:00;22.00;45.70
76607;DHT22;65498;50.916;4.698;2023-03-14T09:23:28;22.00;45.70
76607;DHT22;65498;50.916;4.698;2023-03-14T09:25:56;22.00;45.60
76607;DHT22;65498;50.916;4.698;2023-03-14T09:28:24;22.00;45.70
76607;DHT22;65498;50.916;4.698;2023-03-14T09:30:52;22.00;45.50
76607;DHT22;65498;50.916;4.698;2023-03-14T09:33:20;22.00;45.50
76607;DHT22;65498;50.916;4.698;2023-03-14T09:35:48;22.00;45.50
76607;DHT22;65498;50.916;4.698;2023-03-14T09:38:16;22.00;45.50
76607;DHT22;65498;50.916;4.698;2023-03-14T09:40:44;22.00;45.50
76607;DHT22;65498;50.916;4.698;2023-03-14T09:43:13;21.90;45.40
76607;DHT22;65498;50.916;4.698;2023-03-14T09:45:41;22.00;45.40
76607;DHT22;65498;50.916;4.698;2023-03-14T09:48:20;22.00;45.30
76607;DHT22;65498;50.916;4.698;2023-03-14T09:50:51;21.90;45.30
76607;DHT22;65498;50.916;4.698;2023-03-14T09:53:23;21.90;45.20
76607;DHT22;65498;50.916;4.698;2023-03-14T09:55:50;22.00;45.10
76607;DHT22;65498;50.916;4.698;2023-03-14T09:58:21;22.10;45.10
76607;DHT22;65498;50.916;4.698;2023-03-14T10:00:50;22.10;45.00
76607;DHT22;65498;50.916;4.698;2023-03-14T10:05:53;22.20;44.80
76607;DHT22;65498;50.916;4.698;2023-03-14T10:08:22;22.10;45.20
76607;DHT22;65498;50.916;4.698;2023-03-14T10:10:49;22.10;45.50
76607;DHT22;65498;50.916;4.698;2023-03-14T10:13:20;22.00;46.10
76607;DHT22;65498;50.916;4.698;2023-03-14T10:16:00;21.90;45.90
76607;DHT22;65498;50.916;4.698;2023-03-14T10:18:31;22.00;45.70
76607;DHT22;65498;50.916;4.698;2023-03-14T10:21:28;22.10;45.50
76607;DHT22;65498;50.916;4.698;2023-03-14T10:23:46;22.00;45.40
76607;DHT22;65498;50.916;4.698;2023-03-14T10:26:27;22.00;45.20
76607;DHT22;65498;50.916;4.698;2023-03-14T10:28:53;21.90;45.20
76607;DHT22;65498;50.916;4.698;2023-03-14T10:31:54;21.90;45.20
76607;DHT22;65498;50.916;4.698;2023-03-14T10:34:31;22.00;45.30
76607;DHT22;65498;50.916;4.698;2023-03-14T10:39:55;22.00;45.40
76607;DHT22;65498;50.916;4.698;2023-03-14T10:42:28;22.00;45.40
76607;DHT22;65498;50.916;4.698;2023-03-14T10:45:04;22.00;45.20
76607;DHT22;65498;50.916;4.698;2023-03-14T10:47:33;22.10;44.80
76607;DHT22;65498;50.916;4.698;2023-03-14T10:50:26;22.00;45.00
76607;DHT22;65498;50.916;4.698;2023-03-14T10:52:53;22.10;44.80
76607;DHT22;65498;50.916;4.698;2023-03-14T10:55:24;22.10;44.70
76607;DHT22;65498;50.916;4.698;2023-03-14T10:57:53;22.00;44.60
76607;DHT22;65498;50.916;4.698;2023-03-14T11:00:23;22.10;44.40
76607;DHT22;65498;50.916;4.698;2023-03-14T11:03:08;22.20;44.50
76607;DHT22;65498;50.916;4.698;2023-03-14T11:05:56;22.10;44.40
76607;DHT22;65498;50.916;4.698;2023-03-14T11:14:12;22.10;44.20
76607;DHT22;65498;50.916;4.698;2023-03-14T11:30:53;22.30;43.60
76607;DHT22;65498;50.916;4.698;2023-03-14T11:33:32;22.20;43.50
76607;DHT22;65498;50.916;4.698;2023-03-14T11:36:09;22.20;43.60
76607;DHT22;65498;50.916;4.698;2023-03-14T11:38:48;22.10;43.80
76607;DHT22;65498;50.916;4.698;2023-03-14T11:41:23;22.10;44.40
76607;DHT22;65498;50.916;4.698;2023-03-14T11:43:49;22.10;43.60
76607;DHT22;65498;50.916;4.698;2023-03-14T11:46:29;22.10;43.60
76607;DHT22;65498;50.916;4.698;2023-03-14T11:51:50;22.10;43.60
76607;DHT22;65498;50.916;4.698;2023-03-14T11:56:55;22.10;43.40
76607;DHT22;65498;50.916;4.698;2023-03-14T12:10:04;22.00;43.80
76607;DHT22;65498;50.916;4.698;2023-03-14T12:12:32;22.10;43.60
76607;DHT22;65498;50.916;4.698;2023-03-14T12:15:02;22.10;43.70
76607;DHT22;65498;50.916;4.698;2023-03-14T12:17:41;22.10;44.20
76607;DHT22;65498;50.916;4.698;2023-03-14T12:20:26;22.10;43.70
76607;DHT22;65498;50.916;4.698;2023-03-14T12:23:01;22.10;43.80
76607;DHT22;65498;50.916;4.698;2023-03-14T12:25:29;22.10;43.80
76607;DHT22;65498;50.916;4.698;2023-03-14T12:28:16;22.00;43.90
76607;DHT22;65498;50.916;4.698;2023-03-14T12:30:37;22.10;43.90
76607;DHT22;65498;50.916;4.698;2023-03-14T12:33:19;22.00;44.00
76607;DHT22;65498;50.916;4.698;2023-03-14T12:35:43;22.00;44.20
76607;DHT22;65498;50.916;4.698;2023-03-14T12:38:18;22.10;43.90
76607;DHT22;65498;50.916;4.698;2023-03-14T12:43:31;22.10;44.40
76607;DHT22;65498;50.916;4.698;2023-03-14T12:46:23;22.10;44.30
76607;DHT22;65498;50.916;4.698;2023-03-14T12:51:36;22.10;45.00
76607;DHT22;65498;50.916;4.698;2023-03-14T13:02:46;22.00;45.60
76607;DHT22;65498;50.916;4.698;2023-03-14T13:05:25;22.00;45.10
76607;DHT22;65498;50.916;4.698;2023-03-14T13:10:28;22.00;45.20
76607;DHT22;65498;50.916;4.698;2023-03-14T13:15:41;22.20;45.40
76607;DHT22;65498;50.916;4.698;2023-03-14T13:18:18;22.10;45.60
76607;DHT22;65498;50.916;4.698;2023-03-14T13:21:02;22.00;46.00
76607;DHT22;65498;50.916;4.698;2023-03-14T13:23:35;22.20;45.50
76607;DHT22;65498;50.916;4.698;2023-03-14T13:26:06;22.10;46.50
76607;DHT22;65498;50.916;4.698;2023-03-14T13:28:34;22.20;46.20
76607;DHT22;65498;50.916;4.698;2023-03-14T13:31:03;22.10;46.40
76607;DHT22;65498;50.916;4.698;2023-03-14T13:33:33;22.00;46.40
76607;DHT22;65498;50.916;4.698;2023-03-14T13:36:04;22.10;46.20
76607;DHT22;65498;50.916;4.698;2023-03-14T13:38:34;22.20;45.70
76607;DHT22;65498;50.916;4.698;2023-03-14T13:41:07;22.10;45.70
76607;DHT22;65498;50.916;4.698;2023-03-14T13:43:43;22.10;45.90
76607;DHT22;65498;50.916;4.698;2023-03-14T13:46:16;22.10;45.90
76607;DHT22;65498;50.916;4.698;2023-03-14T13:48:53;22.10;45.80
76607;DHT22;65498;50.916;4.698;2023-03-14T13:51:21;22.10;46.20
76607;DHT22;65498;50.916;4.698;2023-03-14T13:53:53;22.00;46.40
76607;DHT22;65498;50.916;4.698;2023-03-14T13:56:23;22.10;46.50
76607;DHT22;65498;50.916;4.698;2023-03-14T13:58:51;22.00;46.50
76607;DHT22;65498;50.916;4.698;2023-03-14T14:01:33;22.00;47.10
76607;DHT22;65498;50.916;4.698;2023-03-14T14:04:14;22.00;47.10
76607;DHT22;65498;50.916;4.698;2023-03-14T14:06:39;22.10;46.70
76607;DHT22;65498;50.916;4.698;2023-03-14T14:09:16;22.00;47.30
76607;DHT22;65498;50.916;4.698;2023-03-14T14:12:05;22.10;46.80
76607;DHT22;65498;50.916;4.698;2023-03-14T14:14:48;22.10;46.60
76607;DHT22;65498;50.916;4.698;2023-03-14T14:17:10;22.00;47.10
76607;DHT22;65498;50.916;4.698;2023-03-14T14:19:39;22.00;47.20
76607;DHT22;65498;50.916;4.698;2023-03-14T14:22:09;21.90;47.20
76607;DHT22;65498;50.916;4.698;2023-03-14T14:24:38;22.00;47.20
76607;DHT22;65498;50.916;4.698;2023-03-14T14:27:14;22.10;46.80
76607;DHT22;65498;50.916;4.698;2023-03-14T14:29:44;22.10;46.70
76607;DHT22;65498;50.916;4.698;2023-03-14T14:32:14;22.10;46.70
76607;DHT22;65498;50.916;4.698;2023-03-14T14:34:47;22.10;46.60
76607;DHT22;65498;50.916;4.698;2023-03-14T14:37:22;22.00;46.80
76607;DHT22;65498;50.916;4.698;2023-03-14T14:39:52;22.10;46.60
76607;DHT22;65498;50.916;4.698;2023-03-14T14:42:23;22.20;46.30
76607;DHT22;65498;50.916;4.698;2023-03-14T14:44:51;22.20;46.40
76607;DHT22;65498;50.916;4.698;2023-03-14T14:47:21;22.20;46.10
76607;DHT22;65498;50.916;4.698;2023-03-14T14:49:51;22.20;46.00
76607;DHT22;65498;50.916;4.698;2023-03-14T14:52:43;22.20;46.00
76607;DHT22;65498;50.916;4.698;2023-03-14T14:55:17;22.10;46.10
76607;DHT22;65498;50.916;4.698;2023-03-14T14:57:55;22.00;46.30
76607;DHT22;65498;50.916;4.698;2023-03-14T15:00:25;22.00;46.70
76607;DHT22;65498;50.916;4.698;2023-03-14T15:02:55;21.90;46.70
76607;DHT22;65498;50.916;4.698;2023-03-14T15:05:26;21.80;46.80
76607;DHT22;65498;50.916;4.698;2023-03-14T15:07:56;21.90;46.50
76607;DHT22;65498;50.916;4.698;2023-03-14T15:10:25;21.90;46.50
76607;DHT22;65498;50.916;4.698;2023-03-14T15:12:53;21.80;46.40
76607;DHT22;65498;50.916;4.698;2023-03-14T15:15:20;21.80;46.50
76607;DHT22;65498;50.916;4.698;2023-03-14T15:17:48;21.80;46.40
76607;DHT22;65498;50.916;4.698;2023-03-14T15:20:17;21.80;46.10
76607;DHT22;65498;50.916;4.698;2023-03-14T15:22:46;21.80;46.20
76607;DHT22;65498;50.916;4.698;2023-03-14T15:25:13;21.80;46.20
76607;DHT22;65498;50.916;4.698;2023-03-14T15:27:41;21.80;46.10
76607;DHT22;65498;50.916;4.698;2023-03-14T15:30:14;21.80;46.10
76607;DHT22;65498;50.916;4.698;2023-03-14T15:32:42;21.80;46.20
76607;DHT22;65498;50.916;4.698;2023-03-14T15:35:10;21.80;46.30
76607;DHT22;65498;50.916;4.698;2023-03-14T15:37:37;21.80;46.00
76607;DHT22;65498;50.916;4.698;2023-03-14T15:40:06;21.80;46.10
76607;DHT22;65498;50.916;4.698;2023-03-14T15:42:35;21.70;46.20
76607;DHT22;65498;50.916;4.698;2023-03-14T15:45:04;21.70;46.10
76607;DHT22;65498;50.916;4.698;2023-03-14T15:47:31;21.90;45.70
76607;DHT22;65498;50.916;4.698;2023-03-14T15:49:59;21.80;45.80
76607;DHT22;65498;50.916;4.698;2023-03-14T15:52:27;21.80;46.00
76607;DHT22;65498;50.916;4.698;2023-03-14T15:54:54;21.80;45.70
76607;DHT22;65498;50.916;4.698;2023-03-14T15:57:22;21.80;45.60
76607;DHT22;65498;50.916;4.698;2023-03-14T15:59:49;21.80;45.80
76607;DHT22;65498;50.916;4.698;2023-03-14T16:02:17;21.90;45.60
76607;DHT22;65498;50.916;4.698;2023-03-14T16:04:44;21.90;45.40
76607;DHT22;65498;50.916;4.698;2023-03-14T16:07:12;21.90;45.60
76607;DHT22;65498;50.916;4.698;2023-03-14T16:09:40;21.90;45.20
76607;DHT22;65498;50.916;4.698;2023-03-14T16:12:08;21.90;45.20
76607;DHT22;65498;50.916;4.698;2023-03-14T16:14:35;21.90;45.00
76607;DHT22;65498;50.916;4.698;2023-03-14T16:17:03;22.00;44.80
76607;DHT22;65498;50.916;4.698;2023-03-14T16:19:32;21.90;45.00
76607;DHT22;65498;50.916;4.698;2023-03-14T16:21:59;21.90;45.30
76607;DHT22;65498;50.916;4.698;2023-03-14T16:24:28;21.90;45.00
76607;DHT22;65498;50.916;4.698;2023-03-14T16:26:55;21.90;44.90
76607;DHT22;65498;50.916;4.698;2023-03-14T16:29:23;21.90;45.00
76607;DHT22;65498;50.916;4.698;2023-03-14T16:31:50;21.80;45.20
76607;DHT22;65498;50.916;4.698;2023-03-14T16:34:18;21.80;45.40
76607;DHT22;65498;50.916;4.698;2023-03-14T16:36:46;21.70;45.20
76607;DHT22;65498;50.916;4.698;2023-03-14T16:39:13;21.80;45.00
76607;DHT22;65498;50.916;4.698;2023-03-14T16:41:41;21.90;45.40
76607;DHT22;65498;50.916;4.698;2023-03-14T16:44:08;21.80;44.90
76607;DHT22;65498;50.916;4.698;2023-03-14T16:46:36;21.80;45.40
76607;DHT22;65498;50.916;4.698;2023-03-14T16:49:04;21.70;45.80
76607;DHT22;65498;50.916;4.698;2023-03-14T16:51:32;21.70;45.20
76607;DHT22;65498;50.916;4.698;2023-03-14T16:54:00;21.70;45.20
76607;DHT22;65498;50.916;4.698;2023-03-14T16:56:27;21.70;45.20
76607;DHT22;65498;50.916;4.698;2023-03-14T16:58:55;21.70;45.20